Onde está Meca, Lisboa en Portugal?

 

Meca está situado na região Lisboa em Portugal!

Buscar o nome de uma cidade:

Mecayapan, Mecave, Mecahuilillo, Mecabua, Mecaje

Aqui você vai encontrar a localização de Meca em um mapa.
Para ver como ele atualmente parece, abaixo estão algumas fotos da região, com webcams online.
Você também pode encontrar a distância para as principais cidades da região e de cidades do resto do Portugal.

2 lugares nomeadas Meca na Portugal.

Cidades do mundo
Cidades em Portugal que também são encontradas em outros países do mundo.


Onde está Meca no mapa?




Webcams perto Meca

Benavente › North-East: Santarém - AIrport, METAR: BENAV 180005Z 36004KT 17/14 Q1015.


Benavente › North-East: Santarém - AIrport, METAR: BENAV 180005Z 36004KT 17/14 Q1015 - Dia
Actual
Benavente › North-East: Santarém - AIrport, METAR: BENAV 180005Z 36004KT 17/14 Q1015 - Actual

Parque das Nacoes › South: Rua Vasco da Gama.


Parque das Nacoes › South: Rua Vasco da Gama - Dia
Actual
Parque das Nacoes › South: Rua Vasco da Gama - Actual

Lisbon › North: Ponte Vasco da Gama.


Lisbon › North: Ponte Vasco da Gama - Dia
Actual
Lisbon › North: Ponte Vasco da Gama - Actual

Webcams provided by windy.comadd a webcam


Distâncias

Onde está Meca em relação a outros lugares?

Top 10 cidades em Lisboa e distância de Meca.

Cidade#Populaçãokmmilhas
Lisbon15177983421
Amadora21788563522
Queluz31033983522
Loures4662302415
Rio de Mouro5546953924
Odivelas6546232918
São Domingos de Rana7467174528
Cascais8364365031
Alcabideche9333154729
Póvoa de Santa Iria10289001811

Top 10 cidades em Portugal e distância de Meca.

Cidade # Populaçãokmmilhas
Lisbon15177983421
Porto2249630241150
Amadora31788563522
Braga4121393286178
Setúbal51171095333
Coimbra610658014288
Queluz71033983522
Funchal8980411004624
Vila Nova de Gaia970810238148
Loures10662302415


Info

Estatística e Geografia

Portugal é composta de 15299 cidades em 20 regiões.

A região de Lisboa tem 1032 cidades.

Meca é o número 610 na região Lisboa.

A cidade é o número 8039 na Portugal.

Onde está Meca, Lisboa en Portugal?